createdAt,value
2022-10-05T00:02:14.936Z,3.29
2022-10-05T00:12:19.731Z,3.18
2022-10-05T00:22:24.632Z,3.09
2022-10-05T00:32:27.118Z,3.28
2022-10-05T00:42:49.413Z,3.26
2022-10-05T00:53:05.220Z,3.39
2022-10-05T01:03:26.260Z,3.45
2022-10-05T01:13:56.808Z,3.52
2022-10-05T01:24:17.515Z,3.45
2022-10-05T01:34:42.896Z,3.36
2022-10-05T01:45:02.612Z,3.18
2022-10-05T01:55:29.364Z,3.06
2022-10-05T02:05:43.780Z,2.97
2022-10-05T02:15:51.977Z,2.86
2022-10-05T02:25:56.207Z,2.82
2022-10-05T02:36:27.720Z,2.71
2022-10-05T02:46:53.128Z,2.72
2022-10-05T02:57:03.628Z,2.75
2022-10-05T03:07:36.596Z,2.66
2022-10-05T03:17:54.461Z,2.64
2022-10-05T03:28:16.387Z,2.70
2022-10-05T03:38:24.005Z,2.80
2022-10-05T03:48:38.319Z,2.66
2022-10-05T03:58:53.587Z,2.60
2022-10-05T04:09:17.238Z,2.56
2022-10-05T04:19:32.446Z,2.62
2022-10-05T04:29:34.510Z,2.60
2022-10-05T04:40:02.036Z,2.50
2022-10-05T04:50:13.160Z,2.42
2022-10-05T05:00:18.509Z,2.35
2022-10-05T05:10:41.057Z,2.48
2022-10-05T05:21:08.692Z,2.43
2022-10-05T05:31:24.451Z,2.55
2022-10-05T05:41:54.659Z,2.87
2022-10-05T05:52:14.593Z,3.30
2022-10-05T06:02:21.749Z,3.82
2022-10-05T06:12:34.333Z,4.34
2022-10-05T06:22:41.944Z,4.85
2022-10-05T06:32:50.074Z,5.32
2022-10-05T06:43:17.293Z,5.80
2022-10-05T06:53:44.167Z,6.42
2022-10-05T07:03:52.132Z,6.87
2022-10-05T07:14:13.023Z,7.18
2022-10-05T07:24:34.681Z,7.33
2022-10-05T07:35:08.246Z,8.14
2022-10-05T07:45:26.335Z,8.68
2022-10-05T07:55:36.794Z,8.78
2022-10-05T08:05:42.518Z,9.38
2022-10-05T08:15:49.707Z,9.95
2022-10-05T08:26:05.479Z,10.39
2022-10-05T08:36:12.584Z,10.61
2022-10-05T08:46:39.790Z,10.92
2022-10-05T08:57:19.225Z,11.28
2022-10-05T09:07:46.444Z,11.91
2022-10-05T09:18:07.370Z,13.57
2022-10-05T09:28:21.457Z,14.12
2022-10-05T09:39:00.679Z,14.50
2022-10-05T09:49:08.628Z,14.55
2022-10-05T09:59:28.867Z,14.65
2022-10-05T10:10:00.444Z,15.07
2022-10-05T10:20:12.977Z,15.59
2022-10-05T10:30:38.249Z,16.04
2022-10-05T10:41:01.217Z,16.44
2022-10-05T10:51:06.358Z,16.92
2022-10-05T11:01:33.103Z,17.61
2022-10-05T11:11:54.617Z,18.18
2022-10-05T11:22:20.032Z,18.48
2022-10-05T11:32:37.112Z,18.61
2022-10-05T11:42:51.231Z,19.09
2022-10-05T11:53:04.881Z,19.48
2022-10-05T12:03:34.098Z,20.17
2022-10-05T12:13:54.859Z,21.04
2022-10-05T12:24:02.960Z,21.23
2022-10-05T12:34:08.196Z,19.62
2022-10-05T12:44:32.868Z,18.94
2022-10-05T12:54:57.980Z,18.54
2022-10-05T13:05:05.701Z,17.80
2022-10-05T13:15:21.160Z,17.88
2022-10-05T13:25:36.830Z,18.34
2022-10-05T13:35:57.455Z,18.27
2022-10-05T13:46:23.028Z,18.03
2022-10-05T13:56:33.777Z,18.19
2022-10-05T14:06:39.232Z,17.44
2022-10-05T14:16:52.855Z,17.30
2022-10-05T14:26:56.570Z,17.37
2022-10-05T14:37:07.315Z,16.83
2022-10-05T14:47:18.726Z,16.31
2022-10-05T14:57:42.362Z,15.76
2022-10-05T15:07:50.202Z,15.36
2022-10-05T15:18:00.512Z,14.78
2022-10-05T15:28:26.002Z,13.99
2022-10-05T15:38:36.772Z,13.32
2022-10-05T15:48:39.481Z,12.54
2022-10-05T15:58:53.572Z,12.15
2022-10-05T16:09:01.264Z,11.91
2022-10-05T16:19:12.753Z,11.24
2022-10-05T16:29:38.399Z,10.78
2022-10-05T16:39:49.569Z,10.38
2022-10-05T16:50:04.287Z,10.00
2022-10-05T17:00:08.919Z,9.73
2022-10-05T17:10:48.668Z,9.34
2022-10-05T17:21:01.147Z,8.98
2022-10-05T17:31:12.504Z,8.65
2022-10-05T17:41:18.786Z,8.40
2022-10-05T17:51:48.563Z,8.24
2022-10-05T18:02:19.694Z,8.23
2022-10-05T18:12:21.805Z,8.17
2022-10-05T18:22:28.222Z,8.24
2022-10-05T18:32:39.600Z,8.16
2022-10-05T18:42:55.469Z,8.30
2022-10-05T18:53:13.616Z,8.23
2022-10-05T19:03:28.322Z,8.28
2022-10-05T19:13:51.868Z,8.01
2022-10-05T19:24:27.956Z,8.01
2022-10-05T19:34:52.148Z,7.84
2022-10-05T19:45:15.776Z,7.81
2022-10-05T19:55:26.504Z,7.72
2022-10-05T20:05:28.917Z,7.59
2022-10-05T20:15:52.740Z,7.73
2022-10-05T20:26:13.448Z,8.00
2022-10-05T20:40:11.164Z,9.03
2022-10-05T20:50:14.559Z,10.59
2022-10-05T21:00:16.661Z,11.17
2022-10-05T21:10:18.764Z,12.36
2022-10-05T21:20:20.863Z,12.99
2022-10-05T21:30:23.019Z,13.51
2022-10-05T21:40:25.110Z,13.17
2022-10-05T21:50:27.393Z,12.70
2022-10-05T22:00:30.570Z,12.72
2022-10-05T22:10:33.750Z,12.38
2022-10-05T22:20:35.958Z,12.06
2022-10-05T22:30:38.589Z,11.27
2022-10-05T22:40:40.724Z,11.83
2022-10-05T22:50:46.889Z,12.61
2022-10-05T23:00:58.080Z,12.90
2022-10-05T23:11:05.675Z,13.02
2022-10-05T23:21:09.264Z,13.16
2022-10-05T23:31:11.366Z,13.58
2022-10-05T23:41:14.010Z,13.77
2022-10-05T23:51:16.359Z,13.64
